Waterbury, VT (05671)

5:36 AM EDT on September 03, 2015 (GMT -0400)
Hart Road, Duxbury | | Change Station
CLOSE
Current Station
Personal Weather Station
Location: Duxbury, VT
Elevation: 640 ft
Nearby Weather Stations

Elev 640 ft 44.33 °N, 72.77 °W | Updated 30 seconds ago

Fog
Fog
65.1 °F
Feels Like 65.1 °F
N
0.9
Wind Variable Wind from WNW
Gusts 2.0 mph

Today
High -- | Low -- °F
--% Chance of Precip.
Yesterday
High -- | Low -- °F
Precip. -- in
6:15 AM 7:24 PM
Waning Gibbous, 72% visible
Pressure 29.93 in
Visibility 0.8 miles
Clouds
Dew Point 63 °F
Humidity 94%
Rainfall 0.00 in
Snow Depth Not available.
UV Not available.
Pollen 8.30 out of 12
Air Quality Not available.
Flu Activity Not available.
METAR KMPV 030851Z AUTO 00000KT 3/4SM BR VV001 16/16 A2994 RMK AO2 SLP134 T01610156 55006
Pressure 29.93 in
Visibility 0.8 miles
Clouds
Dew Point 63 °F
Humidity 94%
Rainfall 0.00 in
Snow Depth Not available.
UV Not available.
Pollen 8.30 out of 12
Air Quality Not available.
Flu Activity Not available.
METAR KMPV 030851Z AUTO 00000KT 3/4SM BR VV001 16/16 A2994 RMK AO2 SLP134 T01610156 55006

10-Day Weather Forecast

×

Almanac

Astronomy

Sep. 03, 2015 Rise Set
Actual Time
Civil Twilight
Nautical Twilight
Astronomical Twilight
Moon
Length of Visible Light
Length of Day
Tomorrow will be .
, % of the Moon is Illuminated

Today's Extremes

State Highs State Lows

Community

WunderPhotos

Upload Photos

1,851,923 photos uploaded!

WunderBlogs® & News

Nearby

Air Quality

  Air Quality AQ Index Pollutant
Not available.

Snow Depth

Station Depth Elevation

Earthquake Activity

City Distance Mag. Time & Date
Minimum magnitude displayed is 2.5.

Coastal Water Temperatures

Place Temperature

Stations

Nearby Weather Stations

Station Location Temp. Windchill Dew Point Humidity Wind Precip. Elev Updated Type